sensor_id;sensor_type;location;lat;lon;timestamp;P1;durP1;ratioP1;P2;durP2;ratioP2
16189;SDS011;41754;51.498;7.540;2022-10-16T00:01:14;5.50;;;2.30;;
16189;SDS011;41754;51.498;7.540;2022-10-16T00:03:45;4.50;;;2.40;;
16189;SDS011;41754;51.498;7.540;2022-10-16T00:06:15;3.65;;;2.00;;
16189;SDS011;41754;51.498;7.540;2022-10-16T00:08:44;4.57;;;2.28;;
16189;SDS011;41754;51.498;7.540;2022-10-16T00:11:13;4.32;;;2.22;;
16189;SDS011;41754;51.498;7.540;2022-10-16T00:13:43;5.72;;;2.25;;
16189;SDS011;41754;51.498;7.540;2022-10-16T00:16:12;5.10;;;2.20;;
16189;SDS011;41754;51.498;7.540;2022-10-16T00:18:41;4.57;;;1.85;;
16189;SDS011;41754;51.498;7.540;2022-10-16T00:21:09;2.35;;;1.80;;
16189;SDS011;41754;51.498;7.540;2022-10-16T00:23:40;1.80;;;1.70;;
16189;SDS011;41754;51.498;7.540;2022-10-16T00:26:08;2.90;;;1.92;;
16189;SDS011;41754;51.498;7.540;2022-10-16T00:28:39;3.65;;;1.85;;
16189;SDS011;41754;51.498;7.540;2022-10-16T00:31:08;7.32;;;1.90;;
16189;SDS011;41754;51.498;7.540;2022-10-16T00:33:37;4.93;;;1.90;;
16189;SDS011;41754;51.498;7.540;2022-10-16T00:36:06;3.22;;;1.90;;
16189;SDS011;41754;51.498;7.540;2022-10-16T00:38:36;4.25;;;1.48;;
16189;SDS011;41754;51.498;7.540;2022-10-16T00:41:06;2.20;;;1.30;;
16189;SDS011;41754;51.498;7.540;2022-10-16T00:43:36;3.45;;;1.60;;
16189;SDS011;41754;51.498;7.540;2022-10-16T00:46:10;4.28;;;1.58;;
16189;SDS011;41754;51.498;7.540;2022-10-16T00:48:41;2.53;;;1.73;;
16189;SDS011;41754;51.498;7.540;2022-10-16T00:51:10;3.28;;;1.30;;
16189;SDS011;41754;51.498;7.540;2022-10-16T00:53:38;6.07;;;1.80;;
16189;SDS011;41754;51.498;7.540;2022-10-16T00:56:07;3.75;;;1.45;;
16189;SDS011;41754;51.498;7.540;2022-10-16T00:58:35;6.25;;;1.92;;
16189;SDS011;41754;51.498;7.540;2022-10-16T01:01:03;2.75;;;1.80;;
16189;SDS011;41754;51.498;7.540;2022-10-16T01:03:31;3.67;;;1.73;;
16189;SDS011;41754;51.498;7.540;2022-10-16T01:06:09;4.18;;;1.73;;
16189;SDS011;41754;51.498;7.540;2022-10-16T01:08:47;1.80;;;1.45;;
16189;SDS011;41754;51.498;7.540;2022-10-16T01:11:22;2.55;;;1.73;;
16189;SDS011;41754;51.498;7.540;2022-10-16T01:13:53;8.00;;;2.00;;
16189;SDS011;41754;51.498;7.540;2022-10-16T01:16:25;2.15;;;1.58;;
16189;SDS011;41754;51.498;7.540;2022-10-16T01:18:57;5.75;;;2.00;;
16189;SDS011;41754;51.498;7.540;2022-10-16T01:21:29;2.50;;;1.55;;
16189;SDS011;41754;51.498;7.540;2022-10-16T01:24:01;1.50;;;1.40;;
16189;SDS011;41754;51.498;7.540;2022-10-16T01:26:37;1.90;;;1.40;;
16189;SDS011;41754;51.498;7.540;2022-10-16T01:29:18;2.70;;;1.52;;
16189;SDS011;41754;51.498;7.540;2022-10-16T01:31:47;4.82;;;1.50;;
16189;SDS011;41754;51.498;7.540;2022-10-16T01:34:19;1.85;;;1.40;;
16189;SDS011;41754;51.498;7.540;2022-10-16T01:36:49;2.00;;;1.40;;
16189;SDS011;41754;51.498;7.540;2022-10-16T01:39:19;1.85;;;1.10;;
16189;SDS011;41754;51.498;7.540;2022-10-16T01:41:49;2.67;;;1.15;;
16189;SDS011;41754;51.498;7.540;2022-10-16T01:44:22;3.83;;;1.10;;
16189;SDS011;41754;51.498;7.540;2022-10-16T01:46:53;2.85;;;1.65;;
16189;SDS011;41754;51.498;7.540;2022-10-16T01:49:21;1.20;;;1.10;;
16189;SDS011;41754;51.498;7.540;2022-10-16T01:51:51;3.67;;;1.20;;
16189;SDS011;41754;51.498;7.540;2022-10-16T01:54:21;2.65;;;1.35;;
16189;SDS011;41754;51.498;7.540;2022-10-16T01:56:50;8.07;;;1.20;;
16189;SDS011;41754;51.498;7.540;2022-10-16T01:59:19;2.25;;;1.38;;
16189;SDS011;41754;51.498;7.540;2022-10-16T02:01:52;1.73;;;1.50;;
16189;SDS011;41754;51.498;7.540;2022-10-16T02:04:23;2.72;;;1.48;;
16189;SDS011;41754;51.498;7.540;2022-10-16T02:06:54;2.53;;;1.20;;
16189;SDS011;41754;51.498;7.540;2022-10-16T02:09:22;2.47;;;1.25;;
16189;SDS011;41754;51.498;7.540;2022-10-16T02:11:50;2.85;;;1.33;;
16189;SDS011;41754;51.498;7.540;2022-10-16T02:14:20;1.52;;;1.40;;
16189;SDS011;41754;51.498;7.540;2022-10-16T02:16:52;4.18;;;1.23;;
16189;SDS011;41754;51.498;7.540;2022-10-16T02:19:19;2.67;;;1.40;;
16189;SDS011;41754;51.498;7.540;2022-10-16T02:21:49;3.67;;;1.58;;
16189;SDS011;41754;51.498;7.540;2022-10-16T02:24:19;2.45;;;1.40;;
16189;SDS011;41754;51.498;7.540;2022-10-16T02:26:52;2.80;;;1.40;;
16189;SDS011;41754;51.498;7.540;2022-10-16T02:29:26;2.53;;;1.45;;
16189;SDS011;41754;51.498;7.540;2022-10-16T02:31:56;3.20;;;1.73;;
16189;SDS011;41754;51.498;7.540;2022-10-16T02:34:26;2.08;;;1.55;;
16189;SDS011;41754;51.498;7.540;2022-10-16T02:36:55;4.88;;;1.63;;
16189;SDS011;41754;51.498;7.540;2022-10-16T02:39:23;5.72;;;2.00;;
16189;SDS011;41754;51.498;7.540;2022-10-16T02:41:51;3.15;;;1.83;;
16189;SDS011;41754;51.498;7.540;2022-10-16T02:44:19;2.75;;;1.60;;
16189;SDS011;41754;51.498;7.540;2022-10-16T02:46:47;4.28;;;1.98;;
16189;SDS011;41754;51.498;7.540;2022-10-16T02:49:16;5.28;;;1.65;;
16189;SDS011;41754;51.498;7.540;2022-10-16T02:51:44;3.05;;;1.67;;
16189;SDS011;41754;51.498;7.540;2022-10-16T02:54:12;5.35;;;1.88;;
16189;SDS011;41754;51.498;7.540;2022-10-16T02:56:39;1.73;;;1.52;;
16189;SDS011;41754;51.498;7.540;2022-10-16T02:59:07;2.50;;;1.70;;
16189;SDS011;41754;51.498;7.540;2022-10-16T03:01:35;3.83;;;1.45;;
16189;SDS011;41754;51.498;7.540;2022-10-16T03:04:03;3.90;;;1.45;;
16189;SDS011;41754;51.498;7.540;2022-10-16T03:06:32;2.83;;;1.65;;
16189;SDS011;41754;51.498;7.540;2022-10-16T03:09:00;2.53;;;1.75;;
16189;SDS011;41754;51.498;7.540;2022-10-16T03:11:28;3.30;;;1.55;;
16189;SDS011;41754;51.498;7.540;2022-10-16T03:13:55;2.78;;;1.05;;
16189;SDS011;41754;51.498;7.540;2022-10-16T03:16:23;3.80;;;1.30;;
16189;SDS011;41754;51.498;7.540;2022-10-16T03:18:51;4.28;;;1.08;;
16189;SDS011;41754;51.498;7.540;2022-10-16T03:21:19;2.78;;;1.10;;
16189;SDS011;41754;51.498;7.540;2022-10-16T03:23:48;1.40;;;1.23;;
16189;SDS011;41754;51.498;7.540;2022-10-16T03:26:15;3.80;;;1.42;;
16189;SDS011;41754;51.498;7.540;2022-10-16T03:28:43;3.38;;;1.17;;
16189;SDS011;41754;51.498;7.540;2022-10-16T03:31:11;3.40;;;1.50;;
16189;SDS011;41754;51.498;7.540;2022-10-16T03:33:39;2.58;;;1.42;;
16189;SDS011;41754;51.498;7.540;2022-10-16T03:36:06;1.45;;;1.35;;
16189;SDS011;41754;51.498;7.540;2022-10-16T03:38:34;1.20;;;1.13;;
16189;SDS011;41754;51.498;7.540;2022-10-16T03:41:03;5.63;;;1.30;;
16189;SDS011;41754;51.498;7.540;2022-10-16T03:43:33;3.08;;;1.30;;
16189;SDS011;41754;51.498;7.540;2022-10-16T03:46:02;2.75;;;1.30;;
16189;SDS011;41754;51.498;7.540;2022-10-16T03:48:29;3.58;;;1.10;;
16189;SDS011;41754;51.498;7.540;2022-10-16T03:50:58;3.33;;;1.42;;
16189;SDS011;41754;51.498;7.540;2022-10-16T03:53:26;3.85;;;1.30;;
16189;SDS011;41754;51.498;7.540;2022-10-16T03:55:54;3.28;;;1.52;;
16189;SDS011;41754;51.498;7.540;2022-10-16T03:58:23;3.88;;;1.27;;
16189;SDS011;41754;51.498;7.540;2022-10-16T04:00:51;2.92;;;1.10;;
16189;SDS011;41754;51.498;7.540;2022-10-16T04:03:18;2.20;;;0.90;;
16189;SDS011;41754;51.498;7.540;2022-10-16T04:05:47;4.93;;;1.23;;
16189;SDS011;41754;51.498;7.540;2022-10-16T04:08:15;1.80;;;1.33;;
16189;SDS011;41754;51.498;7.540;2022-10-16T04:10:43;2.72;;;1.27;;
16189;SDS011;41754;51.498;7.540;2022-10-16T04:13:11;1.85;;;1.17;;
16189;SDS011;41754;51.498;7.540;2022-10-16T04:15:41;2.00;;;0.90;;
16189;SDS011;41754;51.498;7.540;2022-10-16T04:18:08;1.92;;;0.98;;
16189;SDS011;41754;51.498;7.540;2022-10-16T04:20:36;1.45;;;1.35;;
16189;SDS011;41754;51.498;7.540;2022-10-16T04:23:04;1.77;;;1.08;;
16189;SDS011;41754;51.498;7.540;2022-10-16T04:25:32;2.45;;;1.08;;
16189;SDS011;41754;51.498;7.540;2022-10-16T04:28:00;1.35;;;0.90;;
16189;SDS011;41754;51.498;7.540;2022-10-16T04:30:27;2.65;;;1.33;;
16189;SDS011;41754;51.498;7.540;2022-10-16T04:32:57;1.77;;;0.80;;
16189;SDS011;41754;51.498;7.540;2022-10-16T04:35:29;1.85;;;1.15;;
16189;SDS011;41754;51.498;7.540;2022-10-16T04:37:57;2.55;;;1.20;;
16189;SDS011;41754;51.498;7.540;2022-10-16T04:40:25;2.53;;;1.20;;
16189;SDS011;41754;51.498;7.540;2022-10-16T04:42:53;2.10;;;1.10;;
16189;SDS011;41754;51.498;7.540;2022-10-16T04:45:20;3.58;;;1.20;;
16189;SDS011;41754;51.498;7.540;2022-10-16T04:47:48;3.08;;;0.90;;
16189;SDS011;41754;51.498;7.540;2022-10-16T04:50:17;1.23;;;0.70;;
16189;SDS011;41754;51.498;7.540;2022-10-16T04:53:00;2.28;;;1.00;;
16189;SDS011;41754;51.498;7.540;2022-10-16T04:55:28;2.58;;;1.00;;
16189;SDS011;41754;51.498;7.540;2022-10-16T04:57:56;3.67;;;1.00;;
16189;SDS011;41754;51.498;7.540;2022-10-16T05:00:24;1.08;;;0.88;;
16189;SDS011;41754;51.498;7.540;2022-10-16T05:02:52;1.13;;;1.02;;
16189;SDS011;41754;51.498;7.540;2022-10-16T05:05:21;0.80;;;0.80;;
16189;SDS011;41754;51.498;7.540;2022-10-16T05:07:49;3.63;;;0.93;;
16189;SDS011;41754;51.498;7.540;2022-10-16T05:10:17;1.08;;;0.60;;
16189;SDS011;41754;51.498;7.540;2022-10-16T05:12:45;1.35;;;0.75;;
16189;SDS011;41754;51.498;7.540;2022-10-16T05:15:13;1.67;;;0.70;;
16189;SDS011;41754;51.498;7.540;2022-10-16T05:17:41;2.38;;;0.80;;
16189;SDS011;41754;51.498;7.540;2022-10-16T05:20:10;3.88;;;0.77;;
16189;SDS011;41754;51.498;7.540;2022-10-16T05:22:39;0.60;;;0.60;;
16189;SDS011;41754;51.498;7.540;2022-10-16T05:25:07;5.68;;;0.90;;
16189;SDS011;41754;51.498;7.540;2022-10-16T05:27:35;0.80;;;0.80;;
16189;SDS011;41754;51.498;7.540;2022-10-16T05:30:03;0.73;;;0.70;;
16189;SDS011;41754;51.498;7.540;2022-10-16T05:32:36;1.63;;;0.85;;
16189;SDS011;41754;51.498;7.540;2022-10-16T05:35:04;1.25;;;0.68;;
16189;SDS011;41754;51.498;7.540;2022-10-16T05:37:37;1.10;;;1.00;;
16189;SDS011;41754;51.498;7.540;2022-10-16T05:40:07;1.25;;;0.73;;
16189;SDS011;41754;51.498;7.540;2022-10-16T05:42:35;1.60;;;1.08;;
16189;SDS011;41754;51.498;7.540;2022-10-16T05:45:04;2.30;;;0.80;;
16189;SDS011;41754;51.498;7.540;2022-10-16T05:47:32;1.98;;;0.85;;
16189;SDS011;41754;51.498;7.540;2022-10-16T05:50:00;1.77;;;1.00;;
16189;SDS011;41754;51.498;7.540;2022-10-16T05:52:30;0.90;;;0.90;;
16189;SDS011;41754;51.498;7.540;2022-10-16T05:54:59;4.45;;;1.33;;
16189;SDS011;41754;51.498;7.540;2022-10-16T05:57:27;1.58;;;0.93;;
16189;SDS011;41754;51.498;7.540;2022-10-16T05:59:55;2.33;;;0.98;;
16189;SDS011;41754;51.498;7.540;2022-10-16T06:02:22;2.33;;;1.00;;
16189;SDS011;41754;51.498;7.540;2022-10-16T06:04:51;1.50;;;0.90;;
16189;SDS011;41754;51.498;7.540;2022-10-16T06:07:19;1.45;;;0.90;;
16189;SDS011;41754;51.498;7.540;2022-10-16T06:09:47;2.38;;;2.10;;
16189;SDS011;41754;51.498;7.540;2022-10-16T06:12:17;2.45;;;1.20;;
16189;SDS011;41754;51.498;7.540;2022-10-16T06:14:45;1.67;;;0.95;;
16189;SDS011;41754;51.498;7.540;2022-10-16T06:17:13;1.00;;;1.00;;
16189;SDS011;41754;51.498;7.540;2022-10-16T06:19:41;1.48;;;0.82;;
16189;SDS011;41754;51.498;7.540;2022-10-16T06:22:09;0.88;;;0.80;;
16189;SDS011;41754;51.498;7.540;2022-10-16T06:24:37;1.15;;;1.02;;
16189;SDS011;41754;51.498;7.540;2022-10-16T06:27:05;1.88;;;0.80;;
16189;SDS011;41754;51.498;7.540;2022-10-16T06:29:34;2.45;;;0.90;;
16189;SDS011;41754;51.498;7.540;2022-10-16T06:32:02;1.92;;;1.05;;
16189;SDS011;41754;51.498;7.540;2022-10-16T06:34:30;2.58;;;1.00;;
16189;SDS011;41754;51.498;7.540;2022-10-16T06:36:58;0.82;;;0.80;;
16189;SDS011;41754;51.498;7.540;2022-10-16T06:39:26;2.17;;;1.48;;
16189;SDS011;41754;51.498;7.540;2022-10-16T06:41:54;1.90;;;0.80;;
16189;SDS011;41754;51.498;7.540;2022-10-16T06:44:25;1.95;;;0.90;;
16189;SDS011;41754;51.498;7.540;2022-10-16T06:46:54;4.25;;;1.10;;
16189;SDS011;41754;51.498;7.540;2022-10-16T06:49:22;1.35;;;1.00;;
16189;SDS011;41754;51.498;7.540;2022-10-16T06:51:50;4.28;;;0.98;;
16189;SDS011;41754;51.498;7.540;2022-10-16T06:54:17;0.95;;;0.85;;
16189;SDS011;41754;51.498;7.540;2022-10-16T06:56:45;1.92;;;1.30;;
16189;SDS011;41754;51.498;7.540;2022-10-16T06:59:13;3.85;;;2.03;;
16189;SDS011;41754;51.498;7.540;2022-10-16T07:01:40;2.05;;;1.02;;
16189;SDS011;41754;51.498;7.540;2022-10-16T07:04:10;1.10;;;1.00;;
16189;SDS011;41754;51.498;7.540;2022-10-16T07:06:37;3.80;;;1.33;;
16189;SDS011;41754;51.498;7.540;2022-10-16T07:09:06;3.20;;;1.00;;
16189;SDS011;41754;51.498;7.540;2022-10-16T07:11:36;2.22;;;1.10;;
16189;SDS011;41754;51.498;7.540;2022-10-16T07:14:05;4.22;;;1.25;;
16189;SDS011;41754;51.498;7.540;2022-10-16T07:16:36;1.73;;;1.00;;
16189;SDS011;41754;51.498;7.540;2022-10-16T07:19:04;3.25;;;0.90;;
16189;SDS011;41754;51.498;7.540;2022-10-16T07:21:33;0.90;;;0.90;;
16189;SDS011;41754;51.498;7.540;2022-10-16T07:24:03;1.90;;;1.02;;
16189;SDS011;41754;51.498;7.540;2022-10-16T07:26:33;2.22;;;1.10;;
16189;SDS011;41754;51.498;7.540;2022-10-16T07:29:02;1.02;;;0.98;;
16189;SDS011;41754;51.498;7.540;2022-10-16T07:31:30;2.72;;;1.30;;
16189;SDS011;41754;51.498;7.540;2022-10-16T07:33:58;2.50;;;1.10;;
16189;SDS011;41754;51.498;7.540;2022-10-16T07:36:27;1.55;;;1.00;;
16189;SDS011;41754;51.498;7.540;2022-10-16T07:38:56;2.72;;;1.05;;
16189;SDS011;41754;51.498;7.540;2022-10-16T07:41:26;2.90;;;1.50;;
16189;SDS011;41754;51.498;7.540;2022-10-16T07:43:54;1.70;;;1.10;;
16189;SDS011;41754;51.498;7.540;2022-10-16T07:46:22;3.03;;;1.40;;
16189;SDS011;41754;51.498;7.540;2022-10-16T07:48:50;2.38;;;1.40;;
16189;SDS011;41754;51.498;7.540;2022-10-16T07:51:18;1.65;;;1.00;;
16189;SDS011;41754;51.498;7.540;2022-10-16T07:53:48;1.17;;;0.98;;
16189;SDS011;41754;51.498;7.540;2022-10-16T07:56:18;2.35;;;1.30;;
16189;SDS011;41754;51.498;7.540;2022-10-16T07:58:47;3.15;;;1.00;;
16189;SDS011;41754;51.498;7.540;2022-10-16T08:01:16;3.17;;;1.70;;
16189;SDS011;41754;51.498;7.540;2022-10-16T08:03:45;1.25;;;1.15;;
16189;SDS011;41754;51.498;7.540;2022-10-16T08:06:14;1.92;;;1.27;;
16189;SDS011;41754;51.498;7.540;2022-10-16T08:08:42;2.40;;;1.52;;
16189;SDS011;41754;51.498;7.540;2022-10-16T08:11:10;3.45;;;1.30;;
16189;SDS011;41754;51.498;7.540;2022-10-16T08:13:39;2.25;;;1.20;;
16189;SDS011;41754;51.498;7.540;2022-10-16T08:16:07;4.80;;;1.40;;
16189;SDS011;41754;51.498;7.540;2022-10-16T08:18:36;2.97;;;1.10;;
16189;SDS011;41754;51.498;7.540;2022-10-16T08:21:05;4.00;;;1.48;;
16189;SDS011;41754;51.498;7.540;2022-10-16T08:23:34;1.35;;;1.25;;
16189;SDS011;41754;51.498;7.540;2022-10-16T08:26:02;2.40;;;1.00;;
16189;SDS011;41754;51.498;7.540;2022-10-16T08:28:31;2.55;;;1.23;;
16189;SDS011;41754;51.498;7.540;2022-10-16T08:31:07;2.67;;;1.20;;
16189;SDS011;41754;51.498;7.540;2022-10-16T08:33:35;1.77;;;1.02;;
16189;SDS011;41754;51.498;7.540;2022-10-16T08:36:04;1.20;;;1.10;;
16189;SDS011;41754;51.498;7.540;2022-10-16T08:38:32;2.42;;;1.10;;
16189;SDS011;41754;51.498;7.540;2022-10-16T08:41:04;1.70;;;0.90;;
16189;SDS011;41754;51.498;7.540;2022-10-16T08:43:53;2.20;;;0.95;;
16189;SDS011;41754;51.498;7.540;2022-10-16T08:46:46;1.15;;;0.85;;
16189;SDS011;41754;51.498;7.540;2022-10-16T08:49:17;1.02;;;0.90;;
16189;SDS011;41754;51.498;7.540;2022-10-16T08:51:45;1.65;;;1.00;;
16189;SDS011;41754;51.498;7.540;2022-10-16T08:54:21;1.48;;;0.93;;
16189;SDS011;41754;51.498;7.540;2022-10-16T08:56:54;1.83;;;0.80;;
16189;SDS011;41754;51.498;7.540;2022-10-16T08:59:22;2.90;;;1.08;;
16189;SDS011;41754;51.498;7.540;2022-10-16T09:01:51;2.55;;;1.00;;
16189;SDS011;41754;51.498;7.540;2022-10-16T09:07:23;1.25;;;0.80;;
16189;SDS011;41754;51.498;7.540;2022-10-16T09:09:59;3.78;;;0.95;;
16189;SDS011;41754;51.498;7.540;2022-10-16T09:12:36;1.42;;;1.02;;
16189;SDS011;41754;51.498;7.540;2022-10-16T09:15:14;2.05;;;0.90;;
16189;SDS011;41754;51.498;7.540;2022-10-16T09:17:52;2.85;;;0.90;;
16189;SDS011;41754;51.498;7.540;2022-10-16T09:20:30;1.77;;;0.70;;
16189;SDS011;41754;51.498;7.540;2022-10-16T09:23:16;1.05;;;0.70;;
16189;SDS011;41754;51.498;7.540;2022-10-16T09:25:46;1.38;;;0.70;;
16189;SDS011;41754;51.498;7.540;2022-10-16T09:28:19;3.25;;;0.60;;
16189;SDS011;41754;51.498;7.540;2022-10-16T09:30:47;2.75;;;0.80;;
16189;SDS011;41754;51.498;7.540;2022-10-16T09:33:18;1.90;;;0.70;;
16189;SDS011;41754;51.498;7.540;2022-10-16T09:35:47;2.33;;;0.90;;
16189;SDS011;41754;51.498;7.540;2022-10-16T09:38:24;1.88;;;0.80;;
16189;SDS011;41754;51.498;7.540;2022-10-16T09:40:54;4.05;;;0.80;;
16189;SDS011;41754;51.498;7.540;2022-10-16T09:43:30;1.58;;;0.70;;
16189;SDS011;41754;51.498;7.540;2022-10-16T09:46:02;1.75;;;0.70;;
16189;SDS011;41754;51.498;7.540;2022-10-16T09:48:33;2.05;;;0.70;;
16189;SDS011;41754;51.498;7.540;2022-10-16T09:51:04;2.17;;;0.80;;
16189;SDS011;41754;51.498;7.540;2022-10-16T09:53:40;2.42;;;1.35;;
16189;SDS011;41754;51.498;7.540;2022-10-16T09:56:09;1.17;;;0.50;;
16189;SDS011;41754;51.498;7.540;2022-10-16T09:58:43;2.40;;;0.73;;
16189;SDS011;41754;51.498;7.540;2022-10-16T10:01:12;2.03;;;0.68;;
16189;SDS011;41754;51.498;7.540;2022-10-16T10:03:43;4.47;;;0.82;;
16189;SDS011;41754;51.498;7.540;2022-10-16T10:09:04;1.05;;;0.80;;
16189;SDS011;41754;51.498;7.540;2022-10-16T10:11:37;1.65;;;0.70;;
16189;SDS011;41754;51.498;7.540;2022-10-16T10:14:06;1.00;;;0.57;;
16189;SDS011;41754;51.498;7.540;2022-10-16T10:17:08;1.35;;;0.70;;
16189;SDS011;41754;51.498;7.540;2022-10-16T10:19:40;3.35;;;1.50;;
16189;SDS011;41754;51.498;7.540;2022-10-16T10:28:10;1.95;;;0.90;;
16189;SDS011;41754;51.498;7.540;2022-10-16T10:31:00;3.03;;;0.75;;
16189;SDS011;41754;51.498;7.540;2022-10-16T10:33:31;1.70;;;0.80;;
16189;SDS011;41754;51.498;7.540;2022-10-16T10:36:11;1.67;;;0.70;;
16189;SDS011;41754;51.498;7.540;2022-10-16T10:38:44;2.25;;;0.80;;
16189;SDS011;41754;51.498;7.540;2022-10-16T10:41:32;1.08;;;0.80;;
16189;SDS011;41754;51.498;7.540;2022-10-16T10:44:11;1.35;;;0.80;;
16189;SDS011;41754;51.498;7.540;2022-10-16T10:46:45;1.02;;;0.90;;
16189;SDS011;41754;51.498;7.540;2022-10-16T10:49:19;1.98;;;1.08;;
16189;SDS011;41754;51.498;7.540;2022-10-16T10:52:01;2.53;;;1.00;;
16189;SDS011;41754;51.498;7.540;2022-10-16T10:54:34;1.67;;;0.73;;
16189;SDS011;41754;51.498;7.540;2022-10-16T10:57:07;2.22;;;0.80;;
16189;SDS011;41754;51.498;7.540;2022-10-16T10:59:48;1.42;;;0.60;;
16189;SDS011;41754;51.498;7.540;2022-10-16T11:02:23;1.48;;;0.70;;
16189;SDS011;41754;51.498;7.540;2022-10-16T11:04:56;1.50;;;0.52;;
16189;SDS011;41754;51.498;7.540;2022-10-16T11:07:45;1.42;;;0.85;;
16189;SDS011;41754;51.498;7.540;2022-10-16T11:10:17;1.65;;;0.90;;
16189;SDS011;41754;51.498;7.540;2022-10-16T11:12:47;1.48;;;0.98;;
16189;SDS011;41754;51.498;7.540;2022-10-16T11:15:19;2.80;;;0.93;;
16189;SDS011;41754;51.498;7.540;2022-10-16T11:17:50;2.97;;;0.80;;
16189;SDS011;41754;51.498;7.540;2022-10-16T11:20:21;2.50;;;0.90;;
16189;SDS011;41754;51.498;7.540;2022-10-16T11:22:54;1.92;;;0.90;;
16189;SDS011;41754;51.498;7.540;2022-10-16T11:25:24;3.90;;;0.98;;
16189;SDS011;41754;51.498;7.540;2022-10-16T11:27:55;3.60;;;1.58;;
16189;SDS011;41754;51.498;7.540;2022-10-16T11:30:26;2.13;;;0.68;;
16189;SDS011;41754;51.498;7.540;2022-10-16T11:33:04;1.25;;;0.75;;
16189;SDS011;41754;51.498;7.540;2022-10-16T11:35:44;2.05;;;0.50;;
16189;SDS011;41754;51.498;7.540;2022-10-16T11:38:18;1.98;;;0.90;;
16189;SDS011;41754;51.498;7.540;2022-10-16T11:40:52;1.35;;;0.63;;
16189;SDS011;41754;51.498;7.540;2022-10-16T11:43:24;3.10;;;1.10;;
16189;SDS011;41754;51.498;7.540;2022-10-16T11:45:54;1.38;;;0.50;;
16189;SDS011;41754;51.498;7.540;2022-10-16T11:48:25;2.45;;;0.75;;
16189;SDS011;41754;51.498;7.540;2022-10-16T11:50:56;1.23;;;0.63;;
16189;SDS011;41754;51.498;7.540;2022-10-16T11:53:31;1.75;;;0.60;;
16189;SDS011;41754;51.498;7.540;2022-10-16T11:56:06;0.50;;;0.45;;
16189;SDS011;41754;51.498;7.540;2022-10-16T11:58:35;3.30;;;0.60;;
16189;SDS011;41754;51.498;7.540;2022-10-16T12:01:10;2.55;;;0.70;;
16189;SDS011;41754;51.498;7.540;2022-10-16T12:03:45;1.17;;;0.60;;
16189;SDS011;41754;51.498;7.540;2022-10-16T12:06:22;0.93;;;0.50;;
16189;SDS011;41754;51.498;7.540;2022-10-16T12:08:54;1.00;;;0.50;;
16189;SDS011;41754;51.498;7.540;2022-10-16T12:11:23;0.77;;;0.50;;
16189;SDS011;41754;51.498;7.540;2022-10-16T12:14:05;1.88;;;0.75;;
16189;SDS011;41754;51.498;7.540;2022-10-16T12:16:36;1.52;;;0.73;;
16189;SDS011;41754;51.498;7.540;2022-10-16T12:19:11;4.10;;;0.70;;
16189;SDS011;41754;51.498;7.540;2022-10-16T12:21:41;2.50;;;0.80;;
16189;SDS011;41754;51.498;7.540;2022-10-16T12:24:21;2.00;;;0.68;;
16189;SDS011;41754;51.498;7.540;2022-10-16T12:26:49;2.58;;;0.82;;
16189;SDS011;41754;51.498;7.540;2022-10-16T12:29:22;1.85;;;0.80;;
16189;SDS011;41754;51.498;7.540;2022-10-16T12:31:53;2.13;;;0.90;;
16189;SDS011;41754;51.498;7.540;2022-10-16T12:34:26;2.63;;;0.70;;
16189;SDS011;41754;51.498;7.540;2022-10-16T12:36:55;2.53;;;0.50;;
16189;SDS011;41754;51.498;7.540;2022-10-16T12:39:27;1.45;;;0.50;;
16189;SDS011;41754;51.498;7.540;2022-10-16T12:42:02;2.83;;;0.57;;
16189;SDS011;41754;51.498;7.540;2022-10-16T12:44:34;0.80;;;0.50;;
16189;SDS011;41754;51.498;7.540;2022-10-16T12:47:02;1.08;;;0.57;;
16189;SDS011;41754;51.498;7.540;2022-10-16T12:49:36;2.78;;;0.77;;
16189;SDS011;41754;51.498;7.540;2022-10-16T12:54:57;3.00;;;0.70;;
16189;SDS011;41754;51.498;7.540;2022-10-16T12:57:32;1.08;;;0.50;;
16189;SDS011;41754;51.498;7.540;2022-10-16T13:00:08;0.47;;;0.40;;
16189;SDS011;41754;51.498;7.540;2022-10-16T13:02:50;1.02;;;0.55;;
16189;SDS011;41754;51.498;7.540;2022-10-16T13:05:43;2.17;;;0.70;;
16189;SDS011;41754;51.498;7.540;2022-10-16T13:08:29;1.08;;;0.55;;
16189;SDS011;41754;51.498;7.540;2022-10-16T13:11:05;2.20;;;0.80;;
16189;SDS011;41754;51.498;7.540;2022-10-16T13:13:39;0.38;;;0.32;;
16189;SDS011;41754;51.498;7.540;2022-10-16T13:16:16;1.27;;;0.57;;
16189;SDS011;41754;51.498;7.540;2022-10-16T13:18:50;2.80;;;0.63;;
16189;SDS011;41754;51.498;7.540;2022-10-16T13:21:29;1.45;;;0.60;;
16189;SDS011;41754;51.498;7.540;2022-10-16T13:24:02;1.70;;;0.75;;
16189;SDS011;41754;51.498;7.540;2022-10-16T13:26:41;1.80;;;0.90;;
16189;SDS011;41754;51.498;7.540;2022-10-16T13:29:13;0.75;;;0.50;;
16189;SDS011;41754;51.498;7.540;2022-10-16T13:31:42;2.38;;;0.60;;
16189;SDS011;41754;51.498;7.540;2022-10-16T13:34:11;1.52;;;0.70;;
16189;SDS011;41754;51.498;7.540;2022-10-16T13:36:45;1.63;;;0.50;;
16189;SDS011;41754;51.498;7.540;2022-10-16T13:39:14;2.05;;;0.52;;
16189;SDS011;41754;51.498;7.540;2022-10-16T13:41:45;1.75;;;0.50;;
16189;SDS011;41754;51.498;7.540;2022-10-16T13:44:14;1.23;;;0.65;;
16189;SDS011;41754;51.498;7.540;2022-10-16T13:46:43;2.25;;;0.68;;
16189;SDS011;41754;51.498;7.540;2022-10-16T13:49:12;1.77;;;0.80;;
16189;SDS011;41754;51.498;7.540;2022-10-16T13:51:41;1.27;;;0.52;;
16189;SDS011;41754;51.498;7.540;2022-10-16T13:54:21;1.85;;;0.85;;
16189;SDS011;41754;51.498;7.540;2022-10-16T13:56:50;0.68;;;0.60;;
16189;SDS011;41754;51.498;7.540;2022-10-16T13:59:35;0.85;;;0.60;;
16189;SDS011;41754;51.498;7.540;2022-10-16T14:02:05;0.95;;;0.50;;
16189;SDS011;41754;51.498;7.540;2022-10-16T14:04:41;1.13;;;0.52;;
16189;SDS011;41754;51.498;7.540;2022-10-16T14:07:11;1.92;;;0.80;;
16189;SDS011;41754;51.498;7.540;2022-10-16T14:09:47;3.38;;;0.60;;
16189;SDS011;41754;51.498;7.540;2022-10-16T14:12:17;1.10;;;0.60;;
16189;SDS011;41754;51.498;7.540;2022-10-16T14:14:50;1.33;;;0.70;;
16189;SDS011;41754;51.498;7.540;2022-10-16T14:17:20;0.82;;;0.50;;
16189;SDS011;41754;51.498;7.540;2022-10-16T14:19:50;2.40;;;0.70;;
16189;SDS011;41754;51.498;7.540;2022-10-16T14:22:29;1.35;;;0.85;;
16189;SDS011;41754;51.498;7.540;2022-10-16T14:24:58;2.60;;;0.68;;
16189;SDS011;41754;51.498;7.540;2022-10-16T14:27:31;2.30;;;0.60;;
16189;SDS011;41754;51.498;7.540;2022-10-16T14:30:12;2.65;;;0.90;;
16189;SDS011;41754;51.498;7.540;2022-10-16T14:32:52;1.55;;;0.73;;
16189;SDS011;41754;51.498;7.540;2022-10-16T14:35:21;0.93;;;0.70;;
16189;SDS011;41754;51.498;7.540;2022-10-16T14:37:51;1.65;;;0.70;;
16189;SDS011;41754;51.498;7.540;2022-10-16T14:40:20;1.27;;;0.68;;
16189;SDS011;41754;51.498;7.540;2022-10-16T14:42:52;1.85;;;0.63;;
16189;SDS011;41754;51.498;7.540;2022-10-16T14:45:20;3.22;;;0.90;;
16189;SDS011;41754;51.498;7.540;2022-10-16T14:47:49;4.05;;;1.10;;
16189;SDS011;41754;51.498;7.540;2022-10-16T14:50:18;2.30;;;0.90;;
16189;SDS011;41754;51.498;7.540;2022-10-16T14:52:46;1.05;;;0.73;;
16189;SDS011;41754;51.498;7.540;2022-10-16T14:55:13;1.05;;;0.70;;
16189;SDS011;41754;51.498;7.540;2022-10-16T14:57:42;0.98;;;0.60;;
16189;SDS011;41754;51.498;7.540;2022-10-16T15:00:14;2.42;;;0.90;;
16189;SDS011;41754;51.498;7.540;2022-10-16T15:02:44;2.88;;;1.73;;
16189;SDS011;41754;51.498;7.540;2022-10-16T15:05:13;2.92;;;2.38;;
16189;SDS011;41754;51.498;7.540;2022-10-16T15:07:43;3.40;;;1.20;;
16189;SDS011;41754;51.498;7.540;2022-10-16T15:10:11;0.90;;;0.80;;
16189;SDS011;41754;51.498;7.540;2022-10-16T15:12:39;3.47;;;0.90;;
16189;SDS011;41754;51.498;7.540;2022-10-16T15:18:02;2.20;;;1.00;;
16189;SDS011;41754;51.498;7.540;2022-10-16T15:20:31;5.00;;;1.10;;
16189;SDS011;41754;51.498;7.540;2022-10-16T15:23:00;3.05;;;1.50;;
16189;SDS011;41754;51.498;7.540;2022-10-16T15:25:33;5.07;;;1.30;;
16189;SDS011;41754;51.498;7.540;2022-10-16T15:28:05;2.92;;;1.00;;